sensor_id;sensor_type;location;lat;lon;timestamp;temperature;humidity
66013;DHT22;52783;50.502;8.190;2023-02-17T00:00:31;7.20;99.90
66013;DHT22;52783;50.502;8.190;2023-02-17T00:02:57;7.30;99.90
66013;DHT22;52783;50.502;8.190;2023-02-17T00:05:24;7.30;99.90
66013;DHT22;52783;50.502;8.190;2023-02-17T00:07:49;7.30;99.90
66013;DHT22;52783;50.502;8.190;2023-02-17T00:10:15;7.40;99.90
66013;DHT22;52783;50.502;8.190;2023-02-17T00:12:40;7.40;99.90
66013;DHT22;52783;50.502;8.190;2023-02-17T00:15:06;7.40;99.90
66013;DHT22;52783;50.502;8.190;2023-02-17T00:17:32;7.40;99.90
66013;DHT22;52783;50.502;8.190;2023-02-17T00:19:57;7.40;99.90
66013;DHT22;52783;50.502;8.190;2023-02-17T00:22:23;7.40;99.90
66013;DHT22;52783;50.502;8.190;2023-02-17T00:24:49;7.50;99.90
66013;DHT22;52783;50.502;8.190;2023-02-17T00:27:14;7.40;99.90
66013;DHT22;52783;50.502;8.190;2023-02-17T00:29:40;7.40;99.90
66013;DHT22;52783;50.502;8.190;2023-02-17T00:32:06;7.40;99.90
66013;DHT22;52783;50.502;8.190;2023-02-17T00:34:31;7.40;99.90
66013;DHT22;52783;50.502;8.190;2023-02-17T00:36:57;7.40;99.90
66013;DHT22;52783;50.502;8.190;2023-02-17T00:39:22;7.50;99.90
66013;DHT22;52783;50.502;8.190;2023-02-17T00:41:48;7.50;99.90
66013;DHT22;52783;50.502;8.190;2023-02-17T00:44:20;7.50;99.90
66013;DHT22;52783;50.502;8.190;2023-02-17T00:46:46;7.50;99.90
66013;DHT22;52783;50.502;8.190;2023-02-17T00:49:23;7.50;99.90
66013;DHT22;52783;50.502;8.190;2023-02-17T00:51:49;7.60;99.90
66013;DHT22;52783;50.502;8.190;2023-02-17T00:54:15;7.50;99.90
66013;DHT22;52783;50.502;8.190;2023-02-17T00:56:41;7.50;99.90
66013;DHT22;52783;50.502;8.190;2023-02-17T00:59:08;7.50;99.90
66013;DHT22;52783;50.502;8.190;2023-02-17T01:01:34;7.50;99.90
66013;DHT22;52783;50.502;8.190;2023-02-17T01:04:00;7.50;99.90
66013;DHT22;52783;50.502;8.190;2023-02-17T01:06:29;7.50;99.90
66013;DHT22;52783;50.502;8.190;2023-02-17T01:08:54;7.50;99.90
66013;DHT22;52783;50.502;8.190;2023-02-17T01:11:23;7.60;99.90
66013;DHT22;52783;50.502;8.190;2023-02-17T01:13:50;7.60;99.90
66013;DHT22;52783;50.502;8.190;2023-02-17T01:16:24;7.60;99.90
66013;DHT22;52783;50.502;8.190;2023-02-17T01:18:50;7.60;99.90
66013;DHT22;52783;50.502;8.190;2023-02-17T01:21:18;7.60;99.90
66013;DHT22;52783;50.502;8.190;2023-02-17T01:23:43;7.70;99.90
66013;DHT22;52783;50.502;8.190;2023-02-17T01:26:15;7.70;99.90
66013;DHT22;52783;50.502;8.190;2023-02-17T01:28:42;7.70;99.90
66013;DHT22;52783;50.502;8.190;2023-02-17T01:31:09;7.70;99.90
66013;DHT22;52783;50.502;8.190;2023-02-17T01:33:36;7.70;99.90
66013;DHT22;52783;50.502;8.190;2023-02-17T01:36:06;7.70;99.90
66013;DHT22;52783;50.502;8.190;2023-02-17T01:38:32;7.70;99.90
66013;DHT22;52783;50.502;8.190;2023-02-17T01:40:58;7.70;99.90
66013;DHT22;52783;50.502;8.190;2023-02-17T01:43:24;7.70;99.90
66013;DHT22;52783;50.502;8.190;2023-02-17T01:45:53;7.70;99.90
66013;DHT22;52783;50.502;8.190;2023-02-17T01:48:23;7.80;99.90
66013;DHT22;52783;50.502;8.190;2023-02-17T01:50:52;7.80;99.90
66013;DHT22;52783;50.502;8.190;2023-02-17T01:53:23;7.80;99.90
66013;DHT22;52783;50.502;8.190;2023-02-17T01:55:51;7.80;99.90
66013;DHT22;52783;50.502;8.190;2023-02-17T01:58:19;7.80;99.90
66013;DHT22;52783;50.502;8.190;2023-02-17T02:00:45;7.80;99.90
66013;DHT22;52783;50.502;8.190;2023-02-17T02:03:13;7.80;99.90
66013;DHT22;52783;50.502;8.190;2023-02-17T02:05:40;7.90;99.90
66013;DHT22;52783;50.502;8.190;2023-02-17T02:08:07;7.90;99.90
66013;DHT22;52783;50.502;8.190;2023-02-17T02:10:33;7.90;99.90
66013;DHT22;52783;50.502;8.190;2023-02-17T02:12:58;7.90;99.90
66013;DHT22;52783;50.502;8.190;2023-02-17T02:15:27;8.00;99.90
66013;DHT22;52783;50.502;8.190;2023-02-17T02:32:14;8.00;99.90
66013;DHT22;52783;50.502;8.190;2023-02-17T02:34:54;7.90;99.90
66013;DHT22;52783;50.502;8.190;2023-02-17T02:37:25;7.90;99.90
66013;DHT22;52783;50.502;8.190;2023-02-17T02:39:54;7.90;99.90
66013;DHT22;52783;50.502;8.190;2023-02-17T02:42:22;8.00;99.90
66013;DHT22;52783;50.502;8.190;2023-02-17T02:44:48;8.00;99.90
66013;DHT22;52783;50.502;8.190;2023-02-17T02:50:04;8.10;99.90
66013;DHT22;52783;50.502;8.190;2023-02-17T02:52:36;8.00;99.90
66013;DHT22;52783;50.502;8.190;2023-02-17T03:00:53;8.10;99.90
66013;DHT22;52783;50.502;8.190;2023-02-17T03:03:34;8.10;99.90
66013;DHT22;52783;50.502;8.190;2023-02-17T03:06:16;8.10;99.90
66013;DHT22;52783;50.502;8.190;2023-02-17T03:08:53;8.10;99.90
66013;DHT22;52783;50.502;8.190;2023-02-17T03:11:23;8.10;99.90
66013;DHT22;52783;50.502;8.190;2023-02-17T03:14:10;8.20;99.90
66013;DHT22;52783;50.502;8.190;2023-02-17T03:16:37;8.20;99.90
66013;DHT22;52783;50.502;8.190;2023-02-17T03:19:04;8.20;99.90
66013;DHT22;52783;50.502;8.190;2023-02-17T03:21:36;8.20;99.90
66013;DHT22;52783;50.502;8.190;2023-02-17T03:24:03;8.20;99.90
66013;DHT22;52783;50.502;8.190;2023-02-17T03:26:29;8.30;99.90
66013;DHT22;52783;50.502;8.190;2023-02-17T03:28:54;8.30;99.90
66013;DHT22;52783;50.502;8.190;2023-02-17T03:31:20;8.30;99.90
66013;DHT22;52783;50.502;8.190;2023-02-17T03:33:45;8.30;99.90
66013;DHT22;52783;50.502;8.190;2023-02-17T03:36:11;8.30;99.90
66013;DHT22;52783;50.502;8.190;2023-02-17T03:38:36;8.30;99.90
66013;DHT22;52783;50.502;8.190;2023-02-17T03:41:02;8.30;99.90
66013;DHT22;52783;50.502;8.190;2023-02-17T03:43:27;8.30;99.90
66013;DHT22;52783;50.502;8.190;2023-02-17T03:45:53;8.30;99.90
66013;DHT22;52783;50.502;8.190;2023-02-17T03:48:18;8.40;99.90
66013;DHT22;52783;50.502;8.190;2023-02-17T03:50:44;8.40;99.90
66013;DHT22;52783;50.502;8.190;2023-02-17T03:53:10;8.40;99.90
66013;DHT22;52783;50.502;8.190;2023-02-17T03:55:36;8.40;99.90
66013;DHT22;52783;50.502;8.190;2023-02-17T03:58:02;8.40;99.90
66013;DHT22;52783;50.502;8.190;2023-02-17T04:00:27;8.40;99.90
66013;DHT22;52783;50.502;8.190;2023-02-17T04:02:53;8.50;99.90
66013;DHT22;52783;50.502;8.190;2023-02-17T04:05:21;8.50;99.90
66013;DHT22;52783;50.502;8.190;2023-02-17T04:07:47;8.50;99.90
66013;DHT22;52783;50.502;8.190;2023-02-17T04:10:12;8.60;99.90
66013;DHT22;52783;50.502;8.190;2023-02-17T04:12:38;8.60;99.90
66013;DHT22;52783;50.502;8.190;2023-02-17T04:15:04;8.60;99.90
66013;DHT22;52783;50.502;8.190;2023-02-17T04:17:29;8.60;99.90
66013;DHT22;52783;50.502;8.190;2023-02-17T04:19:55;8.60;99.90
66013;DHT22;52783;50.502;8.190;2023-02-17T04:22:20;8.60;99.90
66013;DHT22;52783;50.502;8.190;2023-02-17T04:24:46;8.60;99.90
66013;DHT22;52783;50.502;8.190;2023-02-17T04:27:11;8.60;99.90
66013;DHT22;52783;50.502;8.190;2023-02-17T04:29:37;8.70;99.90
66013;DHT22;52783;50.502;8.190;2023-02-17T04:32:03;8.70;99.90
66013;DHT22;52783;50.502;8.190;2023-02-17T04:34:28;8.70;99.90
66013;DHT22;52783;50.502;8.190;2023-02-17T04:36:54;8.70;99.90
66013;DHT22;52783;50.502;8.190;2023-02-17T04:39:19;8.70;99.90
66013;DHT22;52783;50.502;8.190;2023-02-17T04:41:45;8.80;99.90
66013;DHT22;52783;50.502;8.190;2023-02-17T04:44:10;8.80;99.90
66013;DHT22;52783;50.502;8.190;2023-02-17T04:46:36;8.80;99.90
66013;DHT22;52783;50.502;8.190;2023-02-17T04:49:01;8.80;99.90
66013;DHT22;52783;50.502;8.190;2023-02-17T04:51:27;8.80;99.90
66013;DHT22;52783;50.502;8.190;2023-02-17T04:53:53;8.80;99.90
66013;DHT22;52783;50.502;8.190;2023-02-17T04:56:19;8.80;99.90
66013;DHT22;52783;50.502;8.190;2023-02-17T04:58:44;8.90;99.90
66013;DHT22;52783;50.502;8.190;2023-02-17T05:01:10;8.90;99.90
66013;DHT22;52783;50.502;8.190;2023-02-17T05:03:35;8.90;99.90
66013;DHT22;52783;50.502;8.190;2023-02-17T05:06:01;8.90;99.90
66013;DHT22;52783;50.502;8.190;2023-02-17T05:08:26;8.90;99.90
66013;DHT22;52783;50.502;8.190;2023-02-17T05:10:52;8.90;99.90
66013;DHT22;52783;50.502;8.190;2023-02-17T05:13:18;8.90;99.90
66013;DHT22;52783;50.502;8.190;2023-02-17T05:15:44;8.90;99.90
66013;DHT22;52783;50.502;8.190;2023-02-17T05:18:11;8.90;99.90
66013;DHT22;52783;50.502;8.190;2023-02-17T05:20:36;8.90;99.90
66013;DHT22;52783;50.502;8.190;2023-02-17T05:23:02;8.90;99.90
66013;DHT22;52783;50.502;8.190;2023-02-17T05:25:28;8.90;99.90
66013;DHT22;52783;50.502;8.190;2023-02-17T05:27:53;8.90;99.90
66013;DHT22;52783;50.502;8.190;2023-02-17T05:30:19;8.90;99.90
66013;DHT22;52783;50.502;8.190;2023-02-17T05:32:44;8.90;99.90
66013;DHT22;52783;50.502;8.190;2023-02-17T05:35:10;9.00;99.90
66013;DHT22;52783;50.502;8.190;2023-02-17T05:37:36;8.90;99.90
66013;DHT22;52783;50.502;8.190;2023-02-17T05:40:01;9.00;99.90
66013;DHT22;52783;50.502;8.190;2023-02-17T05:42:27;9.00;99.90
66013;DHT22;52783;50.502;8.190;2023-02-17T05:44:54;9.00;99.90
66013;DHT22;52783;50.502;8.190;2023-02-17T05:47:20;9.00;99.90
66013;DHT22;52783;50.502;8.190;2023-02-17T05:49:46;9.00;99.90
66013;DHT22;52783;50.502;8.190;2023-02-17T05:52:11;9.00;99.90
66013;DHT22;52783;50.502;8.190;2023-02-17T05:55:21;9.00;99.90
66013;DHT22;52783;50.502;8.190;2023-02-17T05:57:47;9.10;99.90
66013;DHT22;52783;50.502;8.190;2023-02-17T06:00:13;9.00;99.90
66013;DHT22;52783;50.502;8.190;2023-02-17T06:02:39;9.00;99.90
66013;DHT22;52783;50.502;8.190;2023-02-17T06:05:05;9.10;99.90
66013;DHT22;52783;50.502;8.190;2023-02-17T06:07:30;9.10;99.90
66013;DHT22;52783;50.502;8.190;2023-02-17T06:09:56;9.10;99.90
66013;DHT22;52783;50.502;8.190;2023-02-17T06:12:21;9.10;99.90
66013;DHT22;52783;50.502;8.190;2023-02-17T06:14:47;9.10;99.90
66013;DHT22;52783;50.502;8.190;2023-02-17T06:17:12;9.10;99.90
66013;DHT22;52783;50.502;8.190;2023-02-17T06:19:38;9.10;99.90
66013;DHT22;52783;50.502;8.190;2023-02-17T06:22:03;9.10;99.90
66013;DHT22;52783;50.502;8.190;2023-02-17T06:24:29;9.20;99.90
66013;DHT22;52783;50.502;8.190;2023-02-17T06:26:54;9.20;99.90
66013;DHT22;52783;50.502;8.190;2023-02-17T06:29:20;9.20;99.90
66013;DHT22;52783;50.502;8.190;2023-02-17T06:31:45;9.20;99.90
66013;DHT22;52783;50.502;8.190;2023-02-17T06:47:39;9.20;99.90
66013;DHT22;52783;50.502;8.190;2023-02-17T06:50:05;9.20;99.90
66013;DHT22;52783;50.502;8.190;2023-02-17T06:52:30;9.20;99.90
66013;DHT22;52783;50.502;8.190;2023-02-17T06:54:56;9.10;99.90
66013;DHT22;52783;50.502;8.190;2023-02-17T06:57:21;9.20;99.90
66013;DHT22;52783;50.502;8.190;2023-02-17T06:59:47;9.20;99.90
66013;DHT22;52783;50.502;8.190;2023-02-17T07:02:13;9.20;99.90
66013;DHT22;52783;50.502;8.190;2023-02-17T07:04:40;9.20;99.90
66013;DHT22;52783;50.502;8.190;2023-02-17T07:07:06;9.30;99.90
66013;DHT22;52783;50.502;8.190;2023-02-17T07:09:31;9.30;99.90
66013;DHT22;52783;50.502;8.190;2023-02-17T07:11:57;9.30;99.90
66013;DHT22;52783;50.502;8.190;2023-02-17T07:14:24;9.30;99.90
66013;DHT22;52783;50.502;8.190;2023-02-17T07:16:49;9.30;99.90
66013;DHT22;52783;50.502;8.190;2023-02-17T07:19:15;9.30;99.90
66013;DHT22;52783;50.502;8.190;2023-02-17T07:21:41;9.40;99.90
66013;DHT22;52783;50.502;8.190;2023-02-17T07:24:07;9.40;99.90
66013;DHT22;52783;50.502;8.190;2023-02-17T07:26:37;9.40;99.90
66013;DHT22;52783;50.502;8.190;2023-02-17T07:29:03;9.40;99.90
66013;DHT22;52783;50.502;8.190;2023-02-17T07:31:29;9.40;99.90
66013;DHT22;52783;50.502;8.190;2023-02-17T07:33:54;9.50;99.90
66013;DHT22;52783;50.502;8.190;2023-02-17T07:36:20;9.50;99.90
66013;DHT22;52783;50.502;8.190;2023-02-17T07:38:46;9.50;99.90
66013;DHT22;52783;50.502;8.190;2023-02-17T07:41:14;9.50;99.90
66013;DHT22;52783;50.502;8.190;2023-02-17T07:43:43;9.60;99.90
66013;DHT22;52783;50.502;8.190;2023-02-17T07:46:09;9.60;99.90
66013;DHT22;52783;50.502;8.190;2023-02-17T07:54:33;9.70;99.90
66013;DHT22;52783;50.502;8.190;2023-02-17T07:56:58;9.70;99.90
66013;DHT22;52783;50.502;8.190;2023-02-17T07:59:24;9.70;99.90
66013;DHT22;52783;50.502;8.190;2023-02-17T08:01:50;9.80;99.90
66013;DHT22;52783;50.502;8.190;2023-02-17T08:04:16;9.80;99.90
66013;DHT22;52783;50.502;8.190;2023-02-17T08:06:42;9.80;99.90
66013;DHT22;52783;50.502;8.190;2023-02-17T08:09:09;9.80;99.90
66013;DHT22;52783;50.502;8.190;2023-02-17T08:11:54;9.80;99.90
66013;DHT22;52783;50.502;8.190;2023-02-17T08:14:38;9.90;99.90
66013;DHT22;52783;50.502;8.190;2023-02-17T08:17:04;9.90;99.90
66013;DHT22;52783;50.502;8.190;2023-02-17T08:19:30;9.80;99.90
66013;DHT22;52783;50.502;8.190;2023-02-17T08:21:55;9.90;99.90
66013;DHT22;52783;50.502;8.190;2023-02-17T08:24:21;9.80;99.90
66013;DHT22;52783;50.502;8.190;2023-02-17T08:26:48;9.90;99.90
66013;DHT22;52783;50.502;8.190;2023-02-17T08:29:13;9.80;99.90
66013;DHT22;52783;50.502;8.190;2023-02-17T08:31:40;9.80;99.90
66013;DHT22;52783;50.502;8.190;2023-02-17T08:34:07;9.90;99.90
66013;DHT22;52783;50.502;8.190;2023-02-17T08:36:34;9.80;99.90
66013;DHT22;52783;50.502;8.190;2023-02-17T08:39:03;9.80;99.90
66013;DHT22;52783;50.502;8.190;2023-02-17T08:41:34;9.90;99.90
66013;DHT22;52783;50.502;8.190;2023-02-17T08:44:02;9.80;99.90
66013;DHT22;52783;50.502;8.190;2023-02-17T08:46:31;9.90;99.90
66013;DHT22;52783;50.502;8.190;2023-02-17T08:48:57;9.80;99.90
66013;DHT22;52783;50.502;8.190;2023-02-17T08:51:23;9.90;99.90
66013;DHT22;52783;50.502;8.190;2023-02-17T08:53:52;9.90;99.90
66013;DHT22;52783;50.502;8.190;2023-02-17T08:56:19;9.80;99.90
66013;DHT22;52783;50.502;8.190;2023-02-17T08:58:44;9.80;99.90
66013;DHT22;52783;50.502;8.190;2023-02-17T09:01:10;9.80;99.90
66013;DHT22;52783;50.502;8.190;2023-02-17T09:03:37;9.90;99.90
66013;DHT22;52783;50.502;8.190;2023-02-17T09:06:03;9.90;99.90
66013;DHT22;52783;50.502;8.190;2023-02-17T09:08:29;9.90;99.90
66013;DHT22;52783;50.502;8.190;2023-02-17T09:10:55;10.00;99.90
66013;DHT22;52783;50.502;8.190;2023-02-17T09:13:20;10.10;99.90
66013;DHT22;52783;50.502;8.190;2023-02-17T09:15:46;10.20;99.90
66013;DHT22;52783;50.502;8.190;2023-02-17T09:18:11;10.20;99.90
66013;DHT22;52783;50.502;8.190;2023-02-17T09:20:37;10.20;99.90
66013;DHT22;52783;50.502;8.190;2023-02-17T09:23:04;10.20;99.90
66013;DHT22;52783;50.502;8.190;2023-02-17T09:25:29;10.20;99.90
66013;DHT22;52783;50.502;8.190;2023-02-17T09:27:55;10.20;99.90
66013;DHT22;52783;50.502;8.190;2023-02-17T09:30:20;10.30;99.90
66013;DHT22;52783;50.502;8.190;2023-02-17T09:32:46;10.30;99.90
66013;DHT22;52783;50.502;8.190;2023-02-17T09:35:14;10.30;99.90
66013;DHT22;52783;50.502;8.190;2023-02-17T09:37:40;10.40;99.90
66013;DHT22;52783;50.502;8.190;2023-02-17T09:40:13;10.30;99.90
66013;DHT22;52783;50.502;8.190;2023-02-17T09:42:39;10.40;99.90
66013;DHT22;52783;50.502;8.190;2023-02-17T09:45:11;10.40;99.90
66013;DHT22;52783;50.502;8.190;2023-02-17T09:47:41;10.50;99.90
66013;DHT22;52783;50.502;8.190;2023-02-17T09:50:15;10.50;99.90
66013;DHT22;52783;50.502;8.190;2023-02-17T09:52:43;10.50;99.90
66013;DHT22;52783;50.502;8.190;2023-02-17T09:55:15;10.60;99.90
66013;DHT22;52783;50.502;8.190;2023-02-17T09:57:52;10.60;99.90
66013;DHT22;52783;50.502;8.190;2023-02-17T10:00:36;10.70;99.90
66013;DHT22;52783;50.502;8.190;2023-02-17T10:08:37;10.80;99.90
66013;DHT22;52783;50.502;8.190;2023-02-17T10:11:27;10.80;99.90
66013;DHT22;52783;50.502;8.190;2023-02-17T10:13:56;10.90;99.90
66013;DHT22;52783;50.502;8.190;2023-02-17T10:16:29;10.90;99.90
66013;DHT22;52783;50.502;8.190;2023-02-17T10:19:00;11.00;99.90
66013;DHT22;52783;50.502;8.190;2023-02-17T10:21:38;11.10;99.90
66013;DHT22;52783;50.502;8.190;2023-02-17T10:24:05;11.10;99.90
66013;DHT22;52783;50.502;8.190;2023-02-17T10:31:47;11.30;99.90
66013;DHT22;52783;50.502;8.190;2023-02-17T10:34:32;11.50;99.90
66013;DHT22;52783;50.502;8.190;2023-02-17T10:37:03;11.50;99.90
66013;DHT22;52783;50.502;8.190;2023-02-17T10:42:04;11.70;99.90
66013;DHT22;52783;50.502;8.190;2023-02-17T10:44:33;11.80;99.90
66013;DHT22;52783;50.502;8.190;2023-02-17T10:47:00;11.70;99.90
66013;DHT22;52783;50.502;8.190;2023-02-17T10:49:30;11.80;99.90
66013;DHT22;52783;50.502;8.190;2023-02-17T10:52:19;11.90;99.90
66013;DHT22;52783;50.502;8.190;2023-02-17T10:57:19;11.90;99.90
66013;DHT22;52783;50.502;8.190;2023-02-17T10:59:47;12.00;99.90
66013;DHT22;52783;50.502;8.190;2023-02-17T11:02:17;12.10;99.90
66013;DHT22;52783;50.502;8.190;2023-02-17T11:04:45;12.10;99.90
66013;DHT22;52783;50.502;8.190;2023-02-17T11:07:13;12.10;99.90
66013;DHT22;52783;50.502;8.190;2023-02-17T11:09:46;12.30;99.90
66013;DHT22;52783;50.502;8.190;2023-02-17T11:12:21;12.30;99.90
66013;DHT22;52783;50.502;8.190;2023-02-17T11:14:52;12.50;99.90
66013;DHT22;52783;50.502;8.190;2023-02-17T11:17:30;12.60;99.90
66013;DHT22;52783;50.502;8.190;2023-02-17T11:20:04;12.70;99.90
66013;DHT22;52783;50.502;8.190;2023-02-17T11:22:35;12.70;99.90
66013;DHT22;52783;50.502;8.190;2023-02-17T11:25:26;12.70;99.90
66013;DHT22;52783;50.502;8.190;2023-02-17T11:27:55;12.80;99.90
66013;DHT22;52783;50.502;8.190;2023-02-17T11:30:22;12.90;99.90
66013;DHT22;52783;50.502;8.190;2023-02-17T11:32:48;12.90;99.90
66013;DHT22;52783;50.502;8.190;2023-02-17T11:35:24;12.80;99.90
66013;DHT22;52783;50.502;8.190;2023-02-17T11:37:59;12.80;99.90
66013;DHT22;52783;50.502;8.190;2023-02-17T11:40:29;12.80;99.90
66013;DHT22;52783;50.502;8.190;2023-02-17T11:42:56;12.90;99.90
66013;DHT22;52783;50.502;8.190;2023-02-17T11:45:23;12.90;99.90
66013;DHT22;52783;50.502;8.190;2023-02-17T11:50:51;13.00;99.90
66013;DHT22;52783;50.502;8.190;2023-02-17T11:56:18;12.80;99.90
66013;DHT22;52783;50.502;8.190;2023-02-17T11:59:06;12.90;99.90
66013;DHT22;52783;50.502;8.190;2023-02-17T12:01:47;12.90;99.90
66013;DHT22;52783;50.502;8.190;2023-02-17T12:07:05;13.00;99.90
66013;DHT22;52783;50.502;8.190;2023-02-17T12:12:57;13.00;99.90
66013;DHT22;52783;50.502;8.190;2023-02-17T12:18:41;13.10;99.90
66013;DHT22;52783;50.502;8.190;2023-02-17T12:26:53;13.50;99.90
66013;DHT22;52783;50.502;8.190;2023-02-17T12:34:56;13.30;99.90
66013;DHT22;52783;50.502;8.190;2023-02-17T12:37:27;13.20;99.90
66013;DHT22;52783;50.502;8.190;2023-02-17T12:40:01;13.00;99.90
66013;DHT22;52783;50.502;8.190;2023-02-17T12:42:45;12.90;99.90
66013;DHT22;52783;50.502;8.190;2023-02-17T12:47:58;12.80;99.90
66013;DHT22;52783;50.502;8.190;2023-02-17T12:50:37;12.80;99.90
66013;DHT22;52783;50.502;8.190;2023-02-17T12:53:12;12.80;99.90
66013;DHT22;52783;50.502;8.190;2023-02-17T12:55:48;12.80;99.90
66013;DHT22;52783;50.502;8.190;2023-02-17T12:58:17;12.80;99.90
66013;DHT22;52783;50.502;8.190;2023-02-17T13:03:31;13.10;99.90
66013;DHT22;52783;50.502;8.190;2023-02-17T13:08:42;13.10;99.90
66013;DHT22;52783;50.502;8.190;2023-02-17T13:11:23;13.30;99.90
66013;DHT22;52783;50.502;8.190;2023-02-17T13:13:49;13.40;99.90
66013;DHT22;52783;50.502;8.190;2023-02-17T13:16:15;13.30;99.90
66013;DHT22;52783;50.502;8.190;2023-02-17T13:18:47;13.60;99.90
66013;DHT22;52783;50.502;8.190;2023-02-17T13:24:01;13.70;99.90
66013;DHT22;52783;50.502;8.190;2023-02-17T13:26:36;13.60;99.90
66013;DHT22;52783;50.502;8.190;2023-02-17T13:29:16;13.70;99.90
66013;DHT22;52783;50.502;8.190;2023-02-17T13:31:49;13.70;99.90
66013;DHT22;52783;50.502;8.190;2023-02-17T13:34:40;13.80;99.90
66013;DHT22;52783;50.502;8.190;2023-02-17T13:39:58;13.80;99.90
66013;DHT22;52783;50.502;8.190;2023-02-17T13:42:32;13.80;99.90
66013;DHT22;52783;50.502;8.190;2023-02-17T13:44:58;13.70;99.90
66013;DHT22;52783;50.502;8.190;2023-02-17T13:47:34;13.70;99.90
66013;DHT22;52783;50.502;8.190;2023-02-17T13:50:00;13.90;99.90
66013;DHT22;52783;50.502;8.190;2023-02-17T13:52:28;14.10;99.90
66013;DHT22;52783;50.502;8.190;2023-02-17T13:54:56;13.90;99.90
66013;DHT22;52783;50.502;8.190;2023-02-17T13:57:31;13.80;99.90
66013;DHT22;52783;50.502;8.190;2023-02-17T14:02:48;13.80;99.90
66013;DHT22;52783;50.502;8.190;2023-02-17T14:08:06;14.00;99.90
66013;DHT22;52783;50.502;8.190;2023-02-17T14:10:35;14.00;99.90
66013;DHT22;52783;50.502;8.190;2023-02-17T14:13:01;13.90;99.90
66013;DHT22;52783;50.502;8.190;2023-02-17T14:15:27;14.00;99.90
66013;DHT22;52783;50.502;8.190;2023-02-17T14:17:54;14.00;99.90
66013;DHT22;52783;50.502;8.190;2023-02-17T14:20:34;14.00;99.90
66013;DHT22;52783;50.502;8.190;2023-02-17T14:23:09;14.00;99.90
66013;DHT22;52783;50.502;8.190;2023-02-17T14:25:38;13.90;99.90
66013;DHT22;52783;50.502;8.190;2023-02-17T14:28:20;13.90;99.90
66013;DHT22;52783;50.502;8.190;2023-02-17T14:30:46;13.90;99.90
66013;DHT22;52783;50.502;8.190;2023-02-17T14:35:55;13.80;99.90
66013;DHT22;52783;50.502;8.190;2023-02-17T14:38:29;13.90;99.90
66013;DHT22;52783;50.502;8.190;2023-02-17T14:40:59;14.00;99.90
66013;DHT22;52783;50.502;8.190;2023-02-17T14:43:26;14.10;99.90
66013;DHT22;52783;50.502;8.190;2023-02-17T14:45:52;14.10;99.90
66013;DHT22;52783;50.502;8.190;2023-02-17T14:48:17;14.10;99.90
66013;DHT22;52783;50.502;8.190;2023-02-17T14:50:44;14.10;99.90
66013;DHT22;52783;50.502;8.190;2023-02-17T14:53:30;14.20;99.90
66013;DHT22;52783;50.502;8.190;2023-02-17T14:56:29;14.10;99.90
66013;DHT22;52783;50.502;8.190;2023-02-17T14:58:56;14.10;99.90
66013;DHT22;52783;50.502;8.190;2023-02-17T15:01:23;14.10;99.90
66013;DHT22;52783;50.502;8.190;2023-02-17T15:03:49;14.10;99.90
66013;DHT22;52783;50.502;8.190;2023-02-17T15:06:21;14.00;99.90
66013;DHT22;52783;50.502;8.190;2023-02-17T15:08:48;13.90;99.90
66013;DHT22;52783;50.502;8.190;2023-02-17T15:11:23;13.80;99.90
66013;DHT22;52783;50.502;8.190;2023-02-17T15:13:51;13.90;99.90
66013;DHT22;52783;50.502;8.190;2023-02-17T15:16:16;13.70;99.90
66013;DHT22;52783;50.502;8.190;2023-02-17T15:18:42;13.70;99.90
66013;DHT22;52783;50.502;8.190;2023-02-17T15:23:48;13.60;99.90
66013;DHT22;52783;50.502;8.190;2023-02-17T15:26:13;13.60;99.90
66013;DHT22;52783;50.502;8.190;2023-02-17T15:28:39;13.50;99.90
66013;DHT22;52783;50.502;8.190;2023-02-17T15:31:04;13.60;99.90
66013;DHT22;52783;50.502;8.190;2023-02-17T15:33:30;13.50;99.90
66013;DHT22;52783;50.502;8.190;2023-02-17T15:35:55;13.50;99.90
66013;DHT22;52783;50.502;8.190;2023-02-17T15:38:22;13.60;99.90
66013;DHT22;52783;50.502;8.190;2023-02-17T15:40:48;13.50;99.90
66013;DHT22;52783;50.502;8.190;2023-02-17T15:43:16;13.50;99.90
66013;DHT22;52783;50.502;8.190;2023-02-17T15:45:43;13.50;99.90
66013;DHT22;52783;50.502;8.190;2023-02-17T15:48:22;13.40;99.90
66013;DHT22;52783;50.502;8.190;2023-02-17T15:50:48;13.30;99.90
66013;DHT22;52783;50.502;8.190;2023-02-17T15:53:14;13.30;99.90
66013;DHT22;52783;50.502;8.190;2023-02-17T15:55:40;13.30;99.90
66013;DHT22;52783;50.502;8.190;2023-02-17T15:58:12;13.20;99.90
66013;DHT22;52783;50.502;8.190;2023-02-17T16:00:41;13.20;99.90
66013;DHT22;52783;50.502;8.190;2023-02-17T16:03:10;13.20;99.90
66013;DHT22;52783;50.502;8.190;2023-02-17T16:05:35;13.20;99.90
66013;DHT22;52783;50.502;8.190;2023-02-17T16:08:01;13.10;99.90
66013;DHT22;52783;50.502;8.190;2023-02-17T16:10:27;13.10;99.90
66013;DHT22;52783;50.502;8.190;2023-02-17T16:12:55;13.10;99.90
66013;DHT22;52783;50.502;8.190;2023-02-17T16:15:23;13.10;99.90
66013;DHT22;52783;50.502;8.190;2023-02-17T16:17:49;13.10;99.90
66013;DHT22;52783;50.502;8.190;2023-02-17T16:20:21;13.10;99.90
66013;DHT22;52783;50.502;8.190;2023-02-17T16:22:47;13.00;99.90
66013;DHT22;52783;50.502;8.190;2023-02-17T16:25:14;13.00;99.90
66013;DHT22;52783;50.502;8.190;2023-02-17T16:27:41;12.90;99.90
66013;DHT22;52783;50.502;8.190;2023-02-17T16:30:22;13.00;99.90
66013;DHT22;52783;50.502;8.190;2023-02-17T16:32:51;12.90;99.90
66013;DHT22;52783;50.502;8.190;2023-02-17T16:35:19;12.90;99.90
66013;DHT22;52783;50.502;8.190;2023-02-17T16:37:52;12.90;99.90
66013;DHT22;52783;50.502;8.190;2023-02-17T16:40:19;12.80;99.90
66013;DHT22;52783;50.502;8.190;2023-02-17T16:42:45;12.80;99.90
66013;DHT22;52783;50.502;8.190;2023-02-17T16:45:26;12.80;99.90
66013;DHT22;52783;50.502;8.190;2023-02-17T16:47:54;12.80;99.90
66013;DHT22;52783;50.502;8.190;2023-02-17T16:50:25;12.80;99.90
66013;DHT22;52783;50.502;8.190;2023-02-17T16:52:54;12.70;99.90
66013;DHT22;52783;50.502;8.190;2023-02-17T16:55:21;12.70;99.90
66013;DHT22;52783;50.502;8.190;2023-02-17T16:57:47;12.70;99.90
66013;DHT22;52783;50.502;8.190;2023-02-17T17:00:15;12.70;99.90
66013;DHT22;52783;50.502;8.190;2023-02-17T17:02:42;12.70;99.90
66013;DHT22;52783;50.502;8.190;2023-02-17T17:05:09;12.60;99.90
66013;DHT22;52783;50.502;8.190;2023-02-17T17:07:36;12.70;99.90
66013;DHT22;52783;50.502;8.190;2023-02-17T17:10:02;12.60;99.90
66013;DHT22;52783;50.502;8.190;2023-02-17T17:12:28;12.60;99.90
66013;DHT22;52783;50.502;8.190;2023-02-17T17:14:53;12.60;99.90
66013;DHT22;52783;50.502;8.190;2023-02-17T17:17:19;12.60;99.90
66013;DHT22;52783;50.502;8.190;2023-02-17T17:19:45;12.60;99.90
66013;DHT22;52783;50.502;8.190;2023-02-17T17:22:10;12.60;99.90
66013;DHT22;52783;50.502;8.190;2023-02-17T17:24:36;12.60;99.90
66013;DHT22;52783;50.502;8.190;2023-02-17T17:27:02;12.50;99.90
66013;DHT22;52783;50.502;8.190;2023-02-17T17:29:28;12.60;99.90
66013;DHT22;52783;50.502;8.190;2023-02-17T17:31:53;12.50;99.90
66013;DHT22;52783;50.502;8.190;2023-02-17T17:34:19;12.50;99.90
66013;DHT22;52783;50.502;8.190;2023-02-17T17:36:46;12.50;99.90